sensor_id;sensor_type;location;lat;lon;timestamp;pressure;altitude;pressure_sealevel;temperature;humidity
10806;BME280;5455;53.224;6.000;2023-03-03T00:01:33;102655.78;;;-0.41;100.00
10806;BME280;5455;53.224;6.000;2023-03-03T00:04:00;102662.03;;;-0.41;100.00
10806;BME280;5455;53.224;6.000;2023-03-03T00:06:27;102651.91;;;-0.45;100.00
10806;BME280;5455;53.224;6.000;2023-03-03T00:08:56;102652.16;;;-0.47;100.00
10806;BME280;5455;53.224;6.000;2023-03-03T00:11:23;102650.97;;;-0.51;100.00
10806;BME280;5455;53.224;6.000;2023-03-03T00:13:52;102652.19;;;-0.59;100.00
10806;BME280;5455;53.224;6.000;2023-03-03T00:18:51;102650.44;;;-0.65;100.00
10806;BME280;5455;53.224;6.000;2023-03-03T00:21:32;102660.09;;;-0.69;100.00
10806;BME280;5455;53.224;6.000;2023-03-03T00:26:34;102660.72;;;-0.78;100.00
10806;BME280;5455;53.224;6.000;2023-03-03T00:29:22;102664.97;;;-0.82;100.00
10806;BME280;5455;53.224;6.000;2023-03-03T00:31:50;102661.06;;;-0.86;100.00
10806;BME280;5455;53.224;6.000;2023-03-03T00:36:46;102662.50;;;-0.95;100.00
10806;BME280;5455;53.224;6.000;2023-03-03T00:39:36;102655.47;;;-0.96;100.00
10806;BME280;5455;53.224;6.000;2023-03-03T00:42:12;102664.84;;;-0.99;100.00
10806;BME280;5455;53.224;6.000;2023-03-03T00:44:47;102659.59;;;-1.05;100.00
10806;BME280;5455;53.224;6.000;2023-03-03T00:47:36;102657.38;;;-1.08;100.00
10806;BME280;5455;53.224;6.000;2023-03-03T00:52:39;102655.44;;;-1.08;100.00
10806;BME280;5455;53.224;6.000;2023-03-03T00:55:09;102657.94;;;-1.06;100.00
10806;BME280;5455;53.224;6.000;2023-03-03T00:57:36;102654.88;;;-1.10;100.00
10806;BME280;5455;53.224;6.000;2023-03-03T01:00:06;102657.84;;;-1.12;100.00
10806;BME280;5455;53.224;6.000;2023-03-03T01:02:34;102653.47;;;-1.13;100.00
10806;BME280;5455;53.224;6.000;2023-03-03T01:05:01;102654.88;;;-1.10;100.00
10806;BME280;5455;53.224;6.000;2023-03-03T01:07:28;102656.53;;;-1.09;100.00
10806;BME280;5455;53.224;6.000;2023-03-03T01:09:55;102653.13;;;-1.16;100.00
10806;BME280;5455;53.224;6.000;2023-03-03T01:12:23;102654.31;;;-1.24;100.00
10806;BME280;5455;53.224;6.000;2023-03-03T01:14:50;102650.66;;;-1.29;100.00
10806;BME280;5455;53.224;6.000;2023-03-03T01:17:18;102652.75;;;-1.31;100.00
10806;BME280;5455;53.224;6.000;2023-03-03T01:19:45;102654.41;;;-1.30;100.00
10806;BME280;5455;53.224;6.000;2023-03-03T01:22:12;102656.31;;;-1.31;100.00
10806;BME280;5455;53.224;6.000;2023-03-03T01:24:39;102647.13;;;-1.30;100.00
10806;BME280;5455;53.224;6.000;2023-03-03T01:27:06;102646.31;;;-1.30;100.00
10806;BME280;5455;53.224;6.000;2023-03-03T01:29:33;102642.56;;;-1.29;100.00
10806;BME280;5455;53.224;6.000;2023-03-03T01:32:00;102646.88;;;-1.28;100.00
10806;BME280;5455;53.224;6.000;2023-03-03T01:34:27;102636.88;;;-1.28;100.00
10806;BME280;5455;53.224;6.000;2023-03-03T01:36:54;102637.47;;;-1.26;100.00
10806;BME280;5455;53.224;6.000;2023-03-03T01:39:21;102639.13;;;-1.25;100.00
10806;BME280;5455;53.224;6.000;2023-03-03T01:41:48;102636.31;;;-1.30;100.00
10806;BME280;5455;53.224;6.000;2023-03-03T01:44:16;102633.72;;;-1.36;100.00
10806;BME280;5455;53.224;6.000;2023-03-03T01:49:28;102631.97;;;-1.42;100.00
10806;BME280;5455;53.224;6.000;2023-03-03T01:52:01;102625.34;;;-1.46;100.00
10806;BME280;5455;53.224;6.000;2023-03-03T01:54:34;102625.00;;;-1.50;100.00
10806;BME280;5455;53.224;6.000;2023-03-03T01:57:11;102632.53;;;-1.52;100.00
10806;BME280;5455;53.224;6.000;2023-03-03T01:59:43;102622.78;;;-1.53;100.00
10806;BME280;5455;53.224;6.000;2023-03-03T02:02:12;102624.69;;;-1.53;100.00
10806;BME280;5455;53.224;6.000;2023-03-03T02:04:39;102620.56;;;-1.44;100.00
10806;BME280;5455;53.224;6.000;2023-03-03T02:07:08;102621.97;;;-1.42;100.00
10806;BME280;5455;53.224;6.000;2023-03-03T02:09:54;102625.25;;;-1.40;100.00
10806;BME280;5455;53.224;6.000;2023-03-03T02:12:30;102622.06;;;-1.37;100.00
10806;BME280;5455;53.224;6.000;2023-03-03T02:14:58;102631.50;;;-1.39;100.00
10806;BME280;5455;53.224;6.000;2023-03-03T02:17:25;102632.19;;;-1.44;100.00
10806;BME280;5455;53.224;6.000;2023-03-03T02:22:50;102635.72;;;-1.43;100.00
10806;BME280;5455;53.224;6.000;2023-03-03T02:25:49;102631.13;;;-1.43;100.00
10806;BME280;5455;53.224;6.000;2023-03-03T02:28:21;102623.25;;;-1.44;100.00
10806;BME280;5455;53.224;6.000;2023-03-03T02:30:49;102632.91;;;-1.48;100.00
10806;BME280;5455;53.224;6.000;2023-03-03T02:33:16;102619.72;;;-1.45;100.00
10806;BME280;5455;53.224;6.000;2023-03-03T02:35:43;102624.06;;;-1.44;100.00
10806;BME280;5455;53.224;6.000;2023-03-03T02:40:52;102631.50;;;-1.51;100.00
10806;BME280;5455;53.224;6.000;2023-03-03T02:43:22;102631.03;;;-1.48;100.00
10806;BME280;5455;53.224;6.000;2023-03-03T02:45:52;102628.31;;;-1.48;100.00
10806;BME280;5455;53.224;6.000;2023-03-03T02:48:19;102625.25;;;-1.51;100.00
10806;BME280;5455;53.224;6.000;2023-03-03T02:50:46;102624.91;;;-1.55;100.00
10806;BME280;5455;53.224;6.000;2023-03-03T02:53:13;102624.78;;;-1.60;100.00
10806;BME280;5455;53.224;6.000;2023-03-03T02:55:40;102628.66;;;-1.56;100.00
10806;BME280;5455;53.224;6.000;2023-03-03T02:58:07;102623.38;;;-1.51;100.00
10806;BME280;5455;53.224;6.000;2023-03-03T03:00:34;102628.91;;;-1.46;100.00
10806;BME280;5455;53.224;6.000;2023-03-03T03:03:01;102631.13;;;-1.43;100.00
10806;BME280;5455;53.224;6.000;2023-03-03T03:05:29;102633.84;;;-1.43;100.00
10806;BME280;5455;53.224;6.000;2023-03-03T03:07:56;102631.59;;;-1.46;100.00
10806;BME280;5455;53.224;6.000;2023-03-03T03:10:22;102627.97;;;-1.51;100.00
10806;BME280;5455;53.224;6.000;2023-03-03T03:12:50;102632.06;;;-1.49;100.00
10806;BME280;5455;53.224;6.000;2023-03-03T03:15:17;102632.31;;;-1.50;100.00
10806;BME280;5455;53.224;6.000;2023-03-03T03:17:43;102636.06;;;-1.51;100.00
10806;BME280;5455;53.224;6.000;2023-03-03T03:20:11;102634.66;;;-1.54;100.00
10806;BME280;5455;53.224;6.000;2023-03-03T03:22:38;102633.00;;;-1.55;100.00
10806;BME280;5455;53.224;6.000;2023-03-03T03:25:07;102617.50;;;-1.59;100.00
10806;BME280;5455;53.224;6.000;2023-03-03T03:27:35;102633.72;;;-1.59;100.00
10806;BME280;5455;53.224;6.000;2023-03-03T03:30:02;102633.59;;;-1.64;100.00
10806;BME280;5455;53.224;6.000;2023-03-03T03:32:30;102632.75;;;-1.65;100.00
10806;BME280;5455;53.224;6.000;2023-03-03T03:34:57;102630.19;;;-1.60;100.00
10806;BME280;5455;53.224;6.000;2023-03-03T03:37:24;102631.34;;;-1.56;100.00
10806;BME280;5455;53.224;6.000;2023-03-03T03:39:51;102635.72;;;-1.55;100.00
10806;BME280;5455;53.224;6.000;2023-03-03T03:42:19;102625.94;;;-1.56;100.00
10806;BME280;5455;53.224;6.000;2023-03-03T03:44:46;102639.94;;;-1.59;100.00
10806;BME280;5455;53.224;6.000;2023-03-03T03:47:13;102636.19;;;-1.58;100.00
10806;BME280;5455;53.224;6.000;2023-03-03T03:49:41;102635.25;;;-1.63;100.00
10806;BME280;5455;53.224;6.000;2023-03-03T03:52:08;102631.97;;;-1.65;100.00
10806;BME280;5455;53.224;6.000;2023-03-03T03:54:35;102630.88;;;-1.64;100.00
10806;BME280;5455;53.224;6.000;2023-03-03T03:57:03;102630.06;;;-1.65;100.00
10806;BME280;5455;53.224;6.000;2023-03-03T03:59:30;102630.88;;;-1.64;100.00
10806;BME280;5455;53.224;6.000;2023-03-03T04:01:57;102631.59;;;-1.69;100.00
10806;BME280;5455;53.224;6.000;2023-03-03T04:04:25;102622.06;;;-1.72;100.00
10806;BME280;5455;53.224;6.000;2023-03-03T04:06:52;102628.28;;;-1.71;100.00
10806;BME280;5455;53.224;6.000;2023-03-03T04:09:20;102621.25;;;-1.72;100.00
10806;BME280;5455;53.224;6.000;2023-03-03T04:11:47;102627.47;;;-1.72;100.00
10806;BME280;5455;53.224;6.000;2023-03-03T04:14:14;102623.34;;;-1.74;100.00
10806;BME280;5455;53.224;6.000;2023-03-03T04:16:42;102622.75;;;-1.76;100.00
10806;BME280;5455;53.224;6.000;2023-03-03T04:19:09;102617.00;;;-1.80;100.00
10806;BME280;5455;53.224;6.000;2023-03-03T04:21:38;102609.97;;;-1.81;100.00
10806;BME280;5455;53.224;6.000;2023-03-03T04:24:06;102609.13;;;-1.81;100.00
10806;BME280;5455;53.224;6.000;2023-03-03T04:26:33;102610.53;;;-1.79;100.00
10806;BME280;5455;53.224;6.000;2023-03-03T04:29:02;102604.88;;;-1.77;100.00
10806;BME280;5455;53.224;6.000;2023-03-03T04:31:29;102606.44;;;-1.70;100.00
10806;BME280;5455;53.224;6.000;2023-03-03T04:33:57;102609.97;;;-1.69;100.00
10806;BME280;5455;53.224;6.000;2023-03-03T04:36:24;102609.50;;;-1.66;100.00
10806;BME280;5455;53.224;6.000;2023-03-03T04:38:51;102611.94;;;-1.64;100.00
10806;BME280;5455;53.224;6.000;2023-03-03T04:41:19;102613.34;;;-1.62;100.00
10806;BME280;5455;53.224;6.000;2023-03-03T04:43:46;102615.47;;;-1.64;100.00
10806;BME280;5455;53.224;6.000;2023-03-03T04:46:13;102610.31;;;-1.65;100.00
10806;BME280;5455;53.224;6.000;2023-03-03T04:48:40;102612.78;;;-1.64;100.00
10806;BME280;5455;53.224;6.000;2023-03-03T04:51:09;102619.13;;;-1.58;100.00
10806;BME280;5455;53.224;6.000;2023-03-03T04:53:37;102617.13;;;-1.63;100.00
10806;BME280;5455;53.224;6.000;2023-03-03T04:56:06;102622.75;;;-1.64;100.00
10806;BME280;5455;53.224;6.000;2023-03-03T04:58:34;102618.28;;;-1.71;100.00
10806;BME280;5455;53.224;6.000;2023-03-03T05:01:00;102624.16;;;-1.74;100.00
10806;BME280;5455;53.224;6.000;2023-03-03T05:03:30;102610.91;;;-1.75;100.00
10806;BME280;5455;53.224;6.000;2023-03-03T05:05:58;102618.28;;;-1.82;100.00
10806;BME280;5455;53.224;6.000;2023-03-03T05:08:25;102621.00;;;-1.82;100.00
10806;BME280;5455;53.224;6.000;2023-03-03T05:10:53;102626.84;;;-1.85;100.00
10806;BME280;5455;53.224;6.000;2023-03-03T05:13:21;102625.81;;;-1.84;100.00
10806;BME280;5455;53.224;6.000;2023-03-03T05:15:52;102619.78;;;-1.86;100.00
10806;BME280;5455;53.224;6.000;2023-03-03T05:18:24;102618.16;;;-1.87;100.00
10806;BME280;5455;53.224;6.000;2023-03-03T05:20:52;102625.66;;;-1.89;100.00
10806;BME280;5455;53.224;6.000;2023-03-03T05:23:20;102620.50;;;-1.91;100.00
10806;BME280;5455;53.224;6.000;2023-03-03T05:25:48;102626.63;;;-1.95;100.00
10806;BME280;5455;53.224;6.000;2023-03-03T05:28:15;102626.00;;;-1.97;100.00
10806;BME280;5455;53.224;6.000;2023-03-03T05:30:43;102623.31;;;-1.97;100.00
10806;BME280;5455;53.224;6.000;2023-03-03T05:33:14;102620.25;;;-2.01;100.00
10806;BME280;5455;53.224;6.000;2023-03-03T05:35:42;102619.66;;;-2.03;100.00
10806;BME280;5455;53.224;6.000;2023-03-03T05:38:09;102621.78;;;-2.05;100.00
10806;BME280;5455;53.224;6.000;2023-03-03T05:40:37;102619.19;;;-2.00;100.00
10806;BME280;5455;53.224;6.000;2023-03-03T05:43:04;102619.19;;;-2.00;100.00
10806;BME280;5455;53.224;6.000;2023-03-03T05:45:32;102617.78;;;-2.02;100.00
10806;BME280;5455;53.224;6.000;2023-03-03T05:48:01;102619.06;;;-2.05;100.00
10806;BME280;5455;53.224;6.000;2023-03-03T05:50:30;102618.25;;;-2.05;100.00
10806;BME280;5455;53.224;6.000;2023-03-03T05:52:57;102615.91;;;-2.02;100.00
10806;BME280;5455;53.224;6.000;2023-03-03T05:55:24;102617.31;;;-1.99;100.00
10806;BME280;5455;53.224;6.000;2023-03-03T05:57:51;102621.44;;;-1.97;100.00
10806;BME280;5455;53.224;6.000;2023-03-03T06:00:19;102622.72;;;-1.99;100.00
10806;BME280;5455;53.224;6.000;2023-03-03T06:02:46;102622.94;;;-2.01;100.00
10806;BME280;5455;53.224;6.000;2023-03-03T06:05:13;102620.59;;;-1.97;100.00
10806;BME280;5455;53.224;6.000;2023-03-03T06:07:40;102614.53;;;-1.93;100.00
10806;BME280;5455;53.224;6.000;2023-03-03T06:10:07;102623.22;;;-1.91;100.00
10806;BME280;5455;53.224;6.000;2023-03-03T06:12:38;102621.09;;;-1.89;100.00
10806;BME280;5455;53.224;6.000;2023-03-03T06:15:05;102621.56;;;-1.92;100.00
10806;BME280;5455;53.224;6.000;2023-03-03T06:17:33;102622.38;;;-1.91;100.00
10806;BME280;5455;53.224;6.000;2023-03-03T06:20:00;102634.13;;;-1.97;100.00
10806;BME280;5455;53.224;6.000;2023-03-03T06:22:27;102632.25;;;-1.97;100.00
10806;BME280;5455;53.224;6.000;2023-03-03T06:24:54;102624.97;;;-1.96;100.00
10806;BME280;5455;53.224;6.000;2023-03-03T06:27:21;102632.25;;;-1.97;100.00
10806;BME280;5455;53.224;6.000;2023-03-03T06:29:48;102625.53;;;-1.94;100.00
10806;BME280;5455;53.224;6.000;2023-03-03T06:32:15;102632.81;;;-1.95;100.00
10806;BME280;5455;53.224;6.000;2023-03-03T06:34:42;102636.47;;;-1.89;100.00
10806;BME280;5455;53.224;6.000;2023-03-03T06:37:09;102641.94;;;-1.78;100.00
10806;BME280;5455;53.224;6.000;2023-03-03T06:39:36;102640.38;;;-1.74;100.00
10806;BME280;5455;53.224;6.000;2023-03-03T06:42:03;102635.22;;;-1.75;100.00
10806;BME280;5455;53.224;6.000;2023-03-03T06:44:30;102635.44;;;-1.77;100.00
10806;BME280;5455;53.224;6.000;2023-03-03T06:46:57;102637.69;;;-1.74;100.00
10806;BME280;5455;53.224;6.000;2023-03-03T06:49:24;102638.88;;;-1.70;100.00
10806;BME280;5455;53.224;6.000;2023-03-03T06:51:51;102644.19;;;-1.63;100.00
10806;BME280;5455;53.224;6.000;2023-03-03T06:54:20;102644.88;;;-1.56;100.00
10806;BME280;5455;53.224;6.000;2023-03-03T06:56:57;102641.69;;;-1.53;100.00
10806;BME280;5455;53.224;6.000;2023-03-03T06:59:26;102652.03;;;-1.50;100.00
10806;BME280;5455;53.224;6.000;2023-03-03T07:01:55;102647.59;;;-1.44;100.00
10806;BME280;5455;53.224;6.000;2023-03-03T07:06:52;102659.94;;;-1.37;100.00
10806;BME280;5455;53.224;6.000;2023-03-03T07:09:23;102664.66;;;-1.32;100.00
10806;BME280;5455;53.224;6.000;2023-03-03T07:12:01;102666.19;;;-1.25;100.00
10806;BME280;5455;53.224;6.000;2023-03-03T07:14:33;102677.94;;;-1.19;100.00
10806;BME280;5455;53.224;6.000;2023-03-03T07:17:04;102672.41;;;-1.13;100.00
10806;BME280;5455;53.224;6.000;2023-03-03T07:19:34;102668.75;;;-1.06;100.00
10806;BME280;5455;53.224;6.000;2023-03-03T07:35:39;102683.06;;;-0.71;100.00
10806;BME280;5455;53.224;6.000;2023-03-03T07:38:22;102686.69;;;-0.66;100.00
10806;BME280;5455;53.224;6.000;2023-03-03T07:40:53;102677.88;;;-0.61;100.00
10806;BME280;5455;53.224;6.000;2023-03-03T07:48:37;102676.34;;;-0.29;100.00
10806;BME280;5455;53.224;6.000;2023-03-03T07:51:27;102684.19;;;-0.16;100.00
10806;BME280;5455;53.224;6.000;2023-03-03T07:56:47;102684.34;;;0.23;100.00
10806;BME280;5455;53.224;6.000;2023-03-03T07:59:24;102687.09;;;0.56;100.00
10806;BME280;5455;53.224;6.000;2023-03-03T08:01:55;102693.16;;;0.80;100.00
10806;BME280;5455;53.224;6.000;2023-03-03T08:04:40;102699.22;;;1.03;100.00
10806;BME280;5455;53.224;6.000;2023-03-03T08:07:15;102698.09;;;1.21;100.00
10806;BME280;5455;53.224;6.000;2023-03-03T08:09:44;102699.88;;;1.32;100.00
10806;BME280;5455;53.224;6.000;2023-03-03T08:14:50;102705.44;;;1.86;100.00
10806;BME280;5455;53.224;6.000;2023-03-03T08:17:23;102701.34;;;2.10;100.00
10806;BME280;5455;53.224;6.000;2023-03-03T08:19:52;102702.91;;;2.33;100.00
10806;BME280;5455;53.224;6.000;2023-03-03T08:22:30;102705.53;;;2.49;100.00
10806;BME280;5455;53.224;6.000;2023-03-03T08:24:59;102705.94;;;2.68;100.00
10806;BME280;5455;53.224;6.000;2023-03-03T08:27:26;102708.34;;;2.96;100.00
10806;BME280;5455;53.224;6.000;2023-03-03T08:29:53;102717.00;;;3.35;100.00
10806;BME280;5455;53.224;6.000;2023-03-03T08:32:20;102714.38;;;3.55;100.00
10806;BME280;5455;53.224;6.000;2023-03-03T08:34:48;102708.25;;;3.90;100.00
10806;BME280;5455;53.224;6.000;2023-03-03T08:37:15;102703.69;;;4.26;100.00
10806;BME280;5455;53.224;6.000;2023-03-03T08:39:41;102699.59;;;4.54;100.00
10806;BME280;5455;53.224;6.000;2023-03-03T08:42:10;102697.13;;;4.92;100.00
10806;BME280;5455;53.224;6.000;2023-03-03T08:44:36;102710.97;;;5.26;100.00
10806;BME280;5455;53.224;6.000;2023-03-03T08:47:04;102700.53;;;5.48;100.00
10806;BME280;5455;53.224;6.000;2023-03-03T08:49:31;102710.31;;;5.65;100.00
10806;BME280;5455;53.224;6.000;2023-03-03T08:51:58;102711.06;;;5.75;100.00
10806;BME280;5455;53.224;6.000;2023-03-03T08:54:26;102706.44;;;5.76;100.00
10806;BME280;5455;53.224;6.000;2023-03-03T08:56:53;102701.44;;;5.83;100.00
10806;BME280;5455;53.224;6.000;2023-03-03T08:59:20;102700.91;;;5.91;100.00
10806;BME280;5455;53.224;6.000;2023-03-03T09:01:48;102709.31;;;6.04;100.00
10806;BME280;5455;53.224;6.000;2023-03-03T09:04:15;102707.09;;;6.12;100.00
10806;BME280;5455;53.224;6.000;2023-03-03T09:06:42;102713.53;;;6.31;100.00
10806;BME280;5455;53.224;6.000;2023-03-03T09:09:10;102709.41;;;6.33;100.00
10806;BME280;5455;53.224;6.000;2023-03-03T09:11:37;102722.56;;;6.31;100.00
10806;BME280;5455;53.224;6.000;2023-03-03T09:14:16;102711.31;;;6.33;100.00
10806;BME280;5455;53.224;6.000;2023-03-03T09:16:51;102710.44;;;6.42;100.00
10806;BME280;5455;53.224;6.000;2023-03-03T09:21:50;102711.75;;;6.50;100.00
10806;BME280;5455;53.224;6.000;2023-03-03T09:24:25;102723.78;;;6.54;100.00
10806;BME280;5455;53.224;6.000;2023-03-03T09:26:53;102724.81;;;6.58;100.00
10806;BME280;5455;53.224;6.000;2023-03-03T09:37:30;102736.56;;;6.97;100.00
10806;BME280;5455;53.224;6.000;2023-03-03T09:40:26;102737.63;;;6.73;100.00
10806;BME280;5455;53.224;6.000;2023-03-03T09:43:04;102735.13;;;6.71;100.00
10806;BME280;5455;53.224;6.000;2023-03-03T09:46:22;102738.47;;;6.68;100.00
10806;BME280;5455;53.224;6.000;2023-03-03T09:57:16;102742.91;;;6.93;100.00
10806;BME280;5455;53.224;6.000;2023-03-03T10:05:42;102737.56;;;7.06;100.00
10806;BME280;5455;53.224;6.000;2023-03-03T10:11:18;102750.88;;;7.18;100.00
10806;BME280;5455;53.224;6.000;2023-03-03T10:16:40;102748.13;;;7.18;100.00
10806;BME280;5455;53.224;6.000;2023-03-03T10:19:39;102739.28;;;7.26;100.00
10806;BME280;5455;53.224;6.000;2023-03-03T10:22:18;102746.41;;;7.27;100.00
10806;BME280;5455;53.224;6.000;2023-03-03T10:25:03;102743.72;;;7.22;100.00
10806;BME280;5455;53.224;6.000;2023-03-03T10:30:38;102746.22;;;7.47;100.00
10806;BME280;5455;53.224;6.000;2023-03-03T10:33:48;102744.88;;;7.68;100.00
10806;BME280;5455;53.224;6.000;2023-03-03T10:36:43;102746.44;;;7.74;100.00
10806;BME280;5455;53.224;6.000;2023-03-03T10:39:25;102739.97;;;7.65;100.00
10806;BME280;5455;53.224;6.000;2023-03-03T10:53:31;102742.91;;;8.11;100.00
10806;BME280;5455;53.224;6.000;2023-03-03T11:01:56;102744.47;;;8.17;100.00
10806;BME280;5455;53.224;6.000;2023-03-03T11:07:12;102751.28;;;7.83;100.00
10806;BME280;5455;53.224;6.000;2023-03-03T11:15:07;102744.56;;;8.12;100.00
10806;BME280;5455;53.224;6.000;2023-03-03T11:18:02;102741.44;;;8.19;100.00
10806;BME280;5455;53.224;6.000;2023-03-03T11:34:50;102734.38;;;8.69;100.00
10806;BME280;5455;53.224;6.000;2023-03-03T11:37:48;102739.22;;;8.58;100.00
10806;BME280;5455;53.224;6.000;2023-03-03T11:40:35;102741.47;;;8.38;100.00
10806;BME280;5455;53.224;6.000;2023-03-03T11:46:25;102740.06;;;8.59;100.00
10806;BME280;5455;53.224;6.000;2023-03-03T11:48:59;102730.97;;;8.58;100.00
10806;BME280;5455;53.224;6.000;2023-03-03T11:56:47;102732.31;;;8.42;100.00
10806;BME280;5455;53.224;6.000;2023-03-03T11:59:39;102730.53;;;8.51;100.00
10806;BME280;5455;53.224;6.000;2023-03-03T12:04:59;102723.94;;;8.84;100.00
10806;BME280;5455;53.224;6.000;2023-03-03T12:13:22;102722.78;;;8.72;100.00
10806;BME280;5455;53.224;6.000;2023-03-03T12:18:39;102703.22;;;8.73;100.00
10806;BME280;5455;53.224;6.000;2023-03-03T12:27:00;102712.00;;;8.75;100.00
10806;BME280;5455;53.224;6.000;2023-03-03T12:29:40;102709.06;;;8.53;100.00
10806;BME280;5455;53.224;6.000;2023-03-03T12:32:40;102709.56;;;8.18;100.00
10806;BME280;5455;53.224;6.000;2023-03-03T12:38:16;102702.53;;;8.49;100.00
10806;BME280;5455;53.224;6.000;2023-03-03T12:40:52;102703.53;;;8.72;100.00
10806;BME280;5455;53.224;6.000;2023-03-03T12:48:58;102694.53;;;8.66;100.00
10806;BME280;5455;53.224;6.000;2023-03-03T12:51:33;102698.59;;;8.55;100.00
10806;BME280;5455;53.224;6.000;2023-03-03T12:56:44;102684.97;;;8.64;100.00
10806;BME280;5455;53.224;6.000;2023-03-03T12:59:27;102687.34;;;8.70;100.00
10806;BME280;5455;53.224;6.000;2023-03-03T13:05:24;102687.97;;;8.49;100.00
10806;BME280;5455;53.224;6.000;2023-03-03T13:08:13;102686.25;;;8.53;100.00
10806;BME280;5455;53.224;6.000;2023-03-03T13:10:47;102688.34;;;8.42;100.00
10806;BME280;5455;53.224;6.000;2023-03-03T13:16:11;102674.91;;;8.41;100.00
10806;BME280;5455;53.224;6.000;2023-03-03T13:21:36;102684.13;;;8.31;100.00
10806;BME280;5455;53.224;6.000;2023-03-03T13:25:08;102686.94;;;8.26;100.00
10806;BME280;5455;53.224;6.000;2023-03-03T13:27:19;102680.69;;;8.39;100.00
10806;BME280;5455;53.224;6.000;2023-03-03T13:35:53;102679.81;;;8.44;100.00
10806;BME280;5455;53.224;6.000;2023-03-03T13:38:37;102673.84;;;8.55;100.00
10806;BME280;5455;53.224;6.000;2023-03-03T13:41:30;102673.66;;;8.33;100.00
10806;BME280;5455;53.224;6.000;2023-03-03T13:44:09;102671.25;;;8.26;100.00
10806;BME280;5455;53.224;6.000;2023-03-03T13:50:26;102666.13;;;8.39;100.00
10806;BME280;5455;53.224;6.000;2023-03-03T13:52:31;102659.53;;;8.40;100.00
10806;BME280;5455;53.224;6.000;2023-03-03T13:55:20;102653.72;;;8.41;100.00
10806;BME280;5455;53.224;6.000;2023-03-03T14:01:03;102651.59;;;8.38;100.00
10806;BME280;5455;53.224;6.000;2023-03-03T14:06:06;102647.19;;;8.00;100.00
10806;BME280;5455;53.224;6.000;2023-03-03T14:11:23;102649.22;;;8.13;100.00
10806;BME280;5455;53.224;6.000;2023-03-03T14:19:31;102640.59;;;8.19;100.00
10806;BME280;5455;53.224;6.000;2023-03-03T14:24:59;102634.50;;;8.04;100.00
10806;BME280;5455;53.224;6.000;2023-03-03T14:27:37;102634.16;;;7.92;100.00
10806;BME280;5455;53.224;6.000;2023-03-03T14:33:35;102630.44;;;7.83;100.00
10806;BME280;5455;53.224;6.000;2023-03-03T14:36:04;102630.53;;;7.78;100.00
10806;BME280;5455;53.224;6.000;2023-03-03T14:43:37;102628.28;;;7.80;100.00
10806;BME280;5455;53.224;6.000;2023-03-03T14:46:37;102626.44;;;7.75;100.00
10806;BME280;5455;53.224;6.000;2023-03-03T14:49:28;102620.50;;;7.87;100.00
10806;BME280;5455;53.224;6.000;2023-03-03T14:52:26;102610.47;;;7.96;100.00
10806;BME280;5455;53.224;6.000;2023-03-03T14:54:58;102618.03;;;7.85;100.00
10806;BME280;5455;53.224;6.000;2023-03-03T15:03:22;102615.59;;;7.65;100.00
10806;BME280;5455;53.224;6.000;2023-03-03T15:05:54;102615.13;;;7.58;100.00
10806;BME280;5455;53.224;6.000;2023-03-03T15:08:33;102609.88;;;7.61;100.00
10806;BME280;5455;53.224;6.000;2023-03-03T15:13:43;102608.59;;;7.72;100.00
10806;BME280;5455;53.224;6.000;2023-03-03T15:16:22;102603.78;;;7.64;100.00
10806;BME280;5455;53.224;6.000;2023-03-03T15:22:15;102595.09;;;7.57;100.00
10806;BME280;5455;53.224;6.000;2023-03-03T15:24:51;102596.50;;;7.55;100.00
10806;BME280;5455;53.224;6.000;2023-03-03T15:27:27;102588.34;;;7.50;100.00
10806;BME280;5455;53.224;6.000;2023-03-03T15:30:04;102588.47;;;7.40;100.00
10806;BME280;5455;53.224;6.000;2023-03-03T15:32:49;102576.63;;;7.44;100.00
10806;BME280;5455;53.224;6.000;2023-03-03T15:41:25;102574.16;;;7.43;100.00
10806;BME280;5455;53.224;6.000;2023-03-03T15:44:05;102572.16;;;7.30;100.00
10806;BME280;5455;53.224;6.000;2023-03-03T15:47:13;102566.97;;;7.28;100.00
10806;BME280;5455;53.224;6.000;2023-03-03T15:52:55;102567.41;;;7.16;100.00
10806;BME280;5455;53.224;6.000;2023-03-03T16:00:24;102563.75;;;7.02;100.00
10806;BME280;5455;53.224;6.000;2023-03-03T16:03:12;102572.78;;;7.03;100.00
10806;BME280;5455;53.224;6.000;2023-03-03T16:05:53;102575.28;;;6.99;100.00
10806;BME280;5455;53.224;6.000;2023-03-03T16:08:43;102581.63;;;6.95;100.00
10806;BME280;5455;53.224;6.000;2023-03-03T16:11:20;102575.91;;;6.91;100.00
10806;BME280;5455;53.224;6.000;2023-03-03T16:13:53;102574.31;;;6.90;100.00
10806;BME280;5455;53.224;6.000;2023-03-03T16:16:37;102569.91;;;6.89;100.00
10806;BME280;5455;53.224;6.000;2023-03-03T16:22:23;102573.59;;;6.80;100.00
10806;BME280;5455;53.224;6.000;2023-03-03T16:27:42;102579.06;;;6.80;100.00
10806;BME280;5455;53.224;6.000;2023-03-03T16:35:42;102579.66;;;6.77;100.00
10806;BME280;5455;53.224;6.000;2023-03-03T16:38:23;102578.84;;;6.76;100.00
10806;BME280;5455;53.224;6.000;2023-03-03T16:40:56;102585.38;;;6.80;100.00
10806;BME280;5455;53.224;6.000;2023-03-03T16:43:40;102582.94;;;6.79;100.00
10806;BME280;5455;53.224;6.000;2023-03-03T16:46:30;102587.94;;;6.72;100.00
10806;BME280;5455;53.224;6.000;2023-03-03T16:49:10;102586.28;;;6.71;100.00
10806;BME280;5455;53.224;6.000;2023-03-03T16:51:48;102584.38;;;6.71;100.00
10806;BME280;5455;53.224;6.000;2023-03-03T16:54:42;102586.28;;;6.71;100.00
10806;BME280;5455;53.224;6.000;2023-03-03T17:00:08;102592.69;;;6.61;100.00
10806;BME280;5455;53.224;6.000;2023-03-03T17:08:30;102589.50;;;6.54;100.00
10806;BME280;5455;53.224;6.000;2023-03-03T17:16:46;102593.91;;;6.50;100.00
10806;BME280;5455;53.224;6.000;2023-03-03T17:22:19;102590.41;;;6.44;100.00
10806;BME280;5455;53.224;6.000;2023-03-03T17:38:40;102602.75;;;6.42;100.00
10806;BME280;5455;53.224;6.000;2023-03-03T17:44:01;102608.50;;;6.40;100.00
10806;BME280;5455;53.224;6.000;2023-03-03T17:46:44;102604.72;;;6.36;100.00
10806;BME280;5455;53.224;6.000;2023-03-03T17:54:57;102607.16;;;6.38;100.00
10806;BME280;5455;53.224;6.000;2023-03-03T18:15:26;102611.31;;;6.35;100.00
10806;BME280;5455;53.224;6.000;2023-03-03T18:18:02;102609.66;;;6.34;100.00